sensor_id;sensor_type;location;lat;lon;timestamp;pressure;altitude;pressure_sealevel;temperature;humidity
7990;BME280;4040;42.848;23.034;2023-03-03T00:01:00;94977.69;;;4.52;100.00
7990;BME280;4040;42.848;23.034;2023-03-03T00:06:49;94978.47;;;4.53;100.00
7990;BME280;4040;42.848;23.034;2023-03-03T00:12:45;94969.44;;;4.61;100.00
7990;BME280;4040;42.848;23.034;2023-03-03T00:18:39;94966.88;;;4.68;100.00
7990;BME280;4040;42.848;23.034;2023-03-03T00:24:36;94969.50;;;4.64;100.00
7990;BME280;4040;42.848;23.034;2023-03-03T00:30:26;94962.63;;;4.63;100.00
7990;BME280;4040;42.848;23.034;2023-03-03T00:36:28;94956.69;;;4.73;100.00
7990;BME280;4040;42.848;23.034;2023-03-03T00:42:19;94950.47;;;4.66;100.00
7990;BME280;4040;42.848;23.034;2023-03-03T00:48:18;94941.00;;;4.72;100.00
7990;BME280;4040;42.848;23.034;2023-03-03T00:54:09;94938.41;;;4.75;100.00
7990;BME280;4040;42.848;23.034;2023-03-03T00:59:58;94922.22;;;4.61;100.00
7990;BME280;4040;42.848;23.034;2023-03-03T01:10:10;94890.38;;;4.46;100.00
7990;BME280;4040;42.848;23.034;2023-03-03T01:16:00;94918.47;;;4.66;100.00
7990;BME280;4040;42.848;23.034;2023-03-03T01:21:49;94904.81;;;4.71;100.00
7990;BME280;4040;42.848;23.034;2023-03-03T01:27:40;94912.56;;;4.82;100.00
7990;BME280;4040;42.848;23.034;2023-03-03T01:33:28;94904.06;;;4.74;100.00
7990;BME280;4040;42.848;23.034;2023-03-03T01:39:17;94907.97;;;4.80;100.00
7990;BME280;4040;42.848;23.034;2023-03-03T01:45:26;94901.28;;;4.92;100.00
7990;BME280;4040;42.848;23.034;2023-03-03T01:51:20;94901.59;;;4.88;100.00
7990;BME280;4040;42.848;23.034;2023-03-03T01:57:14;94895.44;;;4.83;100.00
7990;BME280;4040;42.848;23.034;2023-03-03T02:03:05;94891.28;;;4.86;100.00
7990;BME280;4040;42.848;23.034;2023-03-03T02:13:15;94862.69;;;4.57;100.00
7990;BME280;4040;42.848;23.034;2023-03-03T02:19:10;94862.66;;;4.54;100.00
7990;BME280;4040;42.848;23.034;2023-03-03T02:25:02;94893.38;;;4.70;100.00
7990;BME280;4040;42.848;23.034;2023-03-03T02:30:57;94891.06;;;4.69;100.00
7990;BME280;4040;42.848;23.034;2023-03-03T02:36:46;94885.09;;;4.79;100.00
7990;BME280;4040;42.848;23.034;2023-03-03T02:42:35;94875.47;;;4.71;100.00
7990;BME280;4040;42.848;23.034;2023-03-03T02:48:26;94875.78;;;4.66;100.00
7990;BME280;4040;42.848;23.034;2023-03-03T02:54:16;94874.97;;;4.62;100.00
7990;BME280;4040;42.848;23.034;2023-03-03T03:00:06;94872.88;;;4.78;100.00
7990;BME280;4040;42.848;23.034;2023-03-03T03:05:57;94875.84;;;4.73;100.00
7990;BME280;4040;42.848;23.034;2023-03-03T03:16:08;94864.44;;;4.72;100.00
7990;BME280;4040;42.848;23.034;2023-03-03T03:21:58;94861.38;;;4.74;100.00
7990;BME280;4040;42.848;23.034;2023-03-03T03:27:46;94857.63;;;4.75;100.00
7990;BME280;4040;42.848;23.034;2023-03-03T03:33:35;94852.97;;;4.72;100.00
7990;BME280;4040;42.848;23.034;2023-03-03T03:39:26;94850.66;;;4.67;100.00
7990;BME280;4040;42.848;23.034;2023-03-03T03:45:14;94849.81;;;4.63;100.00
7990;BME280;4040;42.848;23.034;2023-03-03T03:51:04;94848.34;;;4.65;100.00
7990;BME280;4040;42.848;23.034;2023-03-03T03:56:54;94841.13;;;4.66;100.00
7990;BME280;4040;42.848;23.034;2023-03-03T04:02:42;94841.41;;;4.61;100.00
7990;BME280;4040;42.848;23.034;2023-03-03T04:08:31;94848.13;;;4.48;100.00
7990;BME280;4040;42.848;23.034;2023-03-03T04:18:43;94834.53;;;4.60;100.00
7990;BME280;4040;42.848;23.034;2023-03-03T04:24:31;94845.03;;;4.46;100.00
7990;BME280;4040;42.848;23.034;2023-03-03T04:30:20;94847.38;;;4.51;100.00
7990;BME280;4040;42.848;23.034;2023-03-03T04:36:10;94841.97;;;4.44;100.00
7990;BME280;4040;42.848;23.034;2023-03-03T04:41:58;94845.13;;;4.53;100.00
7990;BME280;4040;42.848;23.034;2023-03-03T04:47:47;94843.69;;;4.59;100.00
7990;BME280;4040;42.848;23.034;2023-03-03T04:53:37;94845.75;;;4.43;100.00
7990;BME280;4040;42.848;23.034;2023-03-03T04:59:26;94840.97;;;4.26;100.00
7990;BME280;4040;42.848;23.034;2023-03-03T05:05:15;94846.13;;;4.15;100.00
7990;BME280;4040;42.848;23.034;2023-03-03T05:11:05;94847.53;;;4.06;100.00
7990;BME280;4040;42.848;23.034;2023-03-03T05:21:15;94857.13;;;3.88;100.00
7990;BME280;4040;42.848;23.034;2023-03-03T05:27:06;94853.38;;;4.15;100.00
7990;BME280;4040;42.848;23.034;2023-03-03T05:32:54;94853.34;;;3.89;100.00
7990;BME280;4040;42.848;23.034;2023-03-03T05:38:45;94857.06;;;4.07;100.00
7990;BME280;4040;42.848;23.034;2023-03-03T05:44:35;94861.53;;;3.77;100.00
7990;BME280;4040;42.848;23.034;2023-03-03T05:50:24;94865.31;;;3.76;100.00
7990;BME280;4040;42.848;23.034;2023-03-03T05:56:12;94867.69;;;3.81;100.00
7990;BME280;4040;42.848;23.034;2023-03-03T06:02:03;94873.25;;;3.95;100.00
7990;BME280;4040;42.848;23.034;2023-03-03T06:07:51;94871.13;;;3.81;100.00
7990;BME280;4040;42.848;23.034;2023-03-03T06:13:40;94870.59;;;3.72;100.00
7990;BME280;4040;42.848;23.034;2023-03-03T06:23:52;94874.56;;;3.82;100.00
7990;BME280;4040;42.848;23.034;2023-03-03T06:29:41;94880.59;;;3.79;100.00
7990;BME280;4040;42.848;23.034;2023-03-03T06:35:30;94874.38;;;3.94;100.00
7990;BME280;4040;42.848;23.034;2023-03-03T06:41:20;94885.09;;;3.97;100.00
7990;BME280;4040;42.848;23.034;2023-03-03T06:47:09;94810.41;;;3.68;100.00
7990;BME280;4040;42.848;23.034;2023-03-03T06:53:03;94893.34;;;4.15;100.00
7990;BME280;4040;42.848;23.034;2023-03-03T06:58:55;94890.47;;;4.27;100.00
7990;BME280;4040;42.848;23.034;2023-03-03T07:04:44;94883.16;;;3.98;100.00
7990;BME280;4040;42.848;23.034;2023-03-03T07:10:33;94892.00;;;4.28;100.00
7990;BME280;4040;42.848;23.034;2023-03-03T07:16:26;94872.38;;;4.39;100.00
7990;BME280;4040;42.848;23.034;2023-03-03T07:26:37;94884.38;;;4.52;100.00
7990;BME280;4040;42.848;23.034;2023-03-03T07:32:34;94882.88;;;4.55;100.00
7990;BME280;4040;42.848;23.034;2023-03-03T07:38:33;94888.03;;;4.70;100.00
7990;BME280;4040;42.848;23.034;2023-03-03T07:44:25;94882.81;;;4.81;100.00
7990;BME280;4040;42.848;23.034;2023-03-03T07:50:19;94884.19;;;4.68;100.00
7990;BME280;4040;42.848;23.034;2023-03-03T07:56:16;94877.50;;;4.81;100.00
7990;BME280;4040;42.848;23.034;2023-03-03T08:02:34;94877.63;;;4.91;100.00
7990;BME280;4040;42.848;23.034;2023-03-03T08:08:30;94873.22;;;5.05;100.00
7990;BME280;4040;42.848;23.034;2023-03-03T08:14:26;94872.97;;;4.84;100.00
7990;BME280;4040;42.848;23.034;2023-03-03T08:20:43;94866.97;;;4.94;100.00
7990;BME280;4040;42.848;23.034;2023-03-03T08:26:34;94866.50;;;4.86;100.00
7990;BME280;4040;42.848;23.034;2023-03-03T08:32:23;94864.09;;;5.06;100.00
7990;BME280;4040;42.848;23.034;2023-03-03T08:38:14;94865.28;;;5.12;100.00
7990;BME280;4040;42.848;23.034;2023-03-03T08:44:04;94862.72;;;5.19;100.00
7990;BME280;4040;42.848;23.034;2023-03-03T08:49:53;94856.66;;;5.26;100.00
7990;BME280;4040;42.848;23.034;2023-03-03T08:55:43;94844.03;;;5.19;100.00
7990;BME280;4040;42.848;23.034;2023-03-03T09:01:33;94852.91;;;5.30;100.00
7990;BME280;4040;42.848;23.034;2023-03-03T09:07:22;94868.09;;;5.23;100.00
7990;BME280;4040;42.848;23.034;2023-03-03T09:13:14;94868.53;;;5.28;100.00
7990;BME280;4040;42.848;23.034;2023-03-03T09:19:16;94865.47;;;5.70;100.00
7990;BME280;4040;42.848;23.034;2023-03-03T09:29:30;94866.69;;;6.23;100.00
7990;BME280;4040;42.848;23.034;2023-03-03T09:35:34;94863.84;;;6.52;100.00
7990;BME280;4040;42.848;23.034;2023-03-03T09:48:23;94870.09;;;6.81;100.00
7990;BME280;4040;42.848;23.034;2023-03-03T09:54:29;94870.31;;;5.97;100.00
7990;BME280;4040;42.848;23.034;2023-03-03T10:00:35;94866.19;;;5.63;100.00
7990;BME280;4040;42.848;23.034;2023-03-03T10:06:29;94870.72;;;5.99;100.00
7990;BME280;4040;42.848;23.034;2023-03-03T10:12:25;94853.28;;;6.12;100.00
7990;BME280;4040;42.848;23.034;2023-03-03T10:18:23;94845.56;;;6.04;100.00
7990;BME280;4040;42.848;23.034;2023-03-03T10:24:26;94851.06;;;6.28;100.00
7990;BME280;4040;42.848;23.034;2023-03-03T10:30:22;94783.16;;;5.82;100.00
7990;BME280;4040;42.848;23.034;2023-03-03T10:36:24;94848.44;;;6.32;100.00
7990;BME280;4040;42.848;23.034;2023-03-03T10:42:29;94842.13;;;6.03;100.00
7990;BME280;4040;42.848;23.034;2023-03-03T10:54:53;94828.47;;;6.19;100.00
7990;BME280;4040;42.848;23.034;2023-03-03T11:00:50;94826.22;;;6.24;100.00
7990;BME280;4040;42.848;23.034;2023-03-03T11:06:47;94813.59;;;6.21;100.00
7990;BME280;4040;42.848;23.034;2023-03-03T11:12:48;94819.50;;;6.48;100.00
7990;BME280;4040;42.848;23.034;2023-03-03T11:18:53;94817.25;;;6.60;100.00
7990;BME280;4040;42.848;23.034;2023-03-03T11:28:28;94808.88;;;6.72;100.00
7990;BME280;4040;42.848;23.034;2023-03-03T11:34:37;94776.78;;;6.69;100.00
7990;BME280;4040;42.848;23.034;2023-03-03T11:40:36;94808.88;;;6.72;100.00
7990;BME280;4040;42.848;23.034;2023-03-03T11:46:34;94805.81;;;6.63;100.00
7990;BME280;4040;42.848;23.034;2023-03-03T11:52:30;94804.25;;;6.59;100.00
7990;BME280;4040;42.848;23.034;2023-03-03T11:58:28;94799.63;;;6.49;100.00
7990;BME280;4040;42.848;23.034;2023-03-03T12:04:21;94764.41;;;6.36;100.00
7990;BME280;4040;42.848;23.034;2023-03-03T12:10:23;94799.47;;;6.24;100.00
7990;BME280;4040;42.848;23.034;2023-03-03T12:16:22;94807.81;;;6.12;100.00
7990;BME280;4040;42.848;23.034;2023-03-03T12:22:31;94806.63;;;6.06;100.00
7990;BME280;4040;42.848;23.034;2023-03-03T12:28:24;94800.09;;;6.00;100.00
7990;BME280;4040;42.848;23.034;2023-03-03T12:34:18;94808.22;;;5.71;100.00
7990;BME280;4040;42.848;23.034;2023-03-03T12:40:18;94814.50;;;5.85;100.00
7990;BME280;4040;42.848;23.034;2023-03-03T12:46:13;94815.31;;;5.89;100.00
7990;BME280;4040;42.848;23.034;2023-03-03T12:52:12;94754.94;;;5.88;100.00
7990;BME280;4040;42.848;23.034;2023-03-03T12:58:10;94774.34;;;6.39;100.00
7990;BME280;4040;42.848;23.034;2023-03-03T13:04:07;94780.59;;;6.64;100.00
7990;BME280;4040;42.848;23.034;2023-03-03T13:10:07;94776.94;;;7.42;100.00
7990;BME280;4040;42.848;23.034;2023-03-03T13:16:01;94764.69;;;7.76;100.00
7990;BME280;4040;42.848;23.034;2023-03-03T13:21:54;94788.44;;;7.60;100.00
7990;BME280;4040;42.848;23.034;2023-03-03T13:32:14;94685.28;;;6.32;100.00
7990;BME280;4040;42.848;23.034;2023-03-03T13:38:09;94776.13;;;7.10;100.00
7990;BME280;4040;42.848;23.034;2023-03-03T13:44:01;94781.44;;;6.96;100.00
7990;BME280;4040;42.848;23.034;2023-03-03T13:50:07;94735.47;;;6.66;100.00
7990;BME280;4040;42.848;23.034;2023-03-03T13:56:05;94769.66;;;7.22;100.00
7990;BME280;4040;42.848;23.034;2023-03-03T14:02:01;94770.84;;;7.59;100.00
7990;BME280;4040;42.848;23.034;2023-03-03T14:07:59;94731.78;;;7.16;100.00
7990;BME280;4040;42.848;23.034;2023-03-03T14:13:58;94769.28;;;7.47;100.00
7990;BME280;4040;42.848;23.034;2023-03-03T14:19:59;94753.97;;;7.55;100.00
7990;BME280;4040;42.848;23.034;2023-03-03T14:25:56;94748.97;;;7.15;100.00
7990;BME280;4040;42.848;23.034;2023-03-03T14:31:45;94766.22;;;7.28;100.00
7990;BME280;4040;42.848;23.034;2023-03-03T14:37:42;94761.59;;;7.18;100.00
7990;BME280;4040;42.848;23.034;2023-03-03T14:43:36;94757.41;;;7.31;100.00
7990;BME280;4040;42.848;23.034;2023-03-03T14:49:29;94676.63;;;6.73;100.00
7990;BME280;4040;42.848;23.034;2023-03-03T14:55:32;94754.00;;;7.51;100.00
7990;BME280;4040;42.848;23.034;2023-03-03T15:01:29;94757.03;;;7.39;100.00
7990;BME280;4040;42.848;23.034;2023-03-03T15:07:27;94751.28;;;7.38;100.00
7990;BME280;4040;42.848;23.034;2023-03-03T15:13:39;94757.38;;;7.24;100.00
7990;BME280;4040;42.848;23.034;2023-03-03T15:19:49;94748.59;;;7.34;100.00
7990;BME280;4040;42.848;23.034;2023-03-03T15:25:44;94731.38;;;7.21;100.00
7990;BME280;4040;42.848;23.034;2023-03-03T15:31:43;94696.53;;;6.86;100.00
7990;BME280;4040;42.848;23.034;2023-03-03T15:37:43;94750.91;;;7.22;100.00
7990;BME280;4040;42.848;23.034;2023-03-03T15:43:36;94760.84;;;7.28;100.00
7990;BME280;4040;42.848;23.034;2023-03-03T15:55:57;94772.72;;;7.27;100.00
7990;BME280;4040;42.848;23.034;2023-03-03T16:01:52;94772.34;;;7.25;100.00
7990;BME280;4040;42.848;23.034;2023-03-03T16:14:11;94775.34;;;6.99;100.00
7990;BME280;4040;42.848;23.034;2023-03-03T16:20:17;94785.31;;;7.16;100.00
7990;BME280;4040;42.848;23.034;2023-03-03T16:26:17;94763.81;;;6.81;100.00
7990;BME280;4040;42.848;23.034;2023-03-03T16:32:11;94790.63;;;7.02;100.00
7990;BME280;4040;42.848;23.034;2023-03-03T16:38:07;94800.53;;;6.91;100.00
7990;BME280;4040;42.848;23.034;2023-03-03T16:44:07;94794.41;;;6.87;100.00
7990;BME280;4040;42.848;23.034;2023-03-03T16:50:11;94807.84;;;7.01;100.00
7990;BME280;4040;42.848;23.034;2023-03-03T16:56:07;94767.63;;;6.73;100.00
7990;BME280;4040;42.848;23.034;2023-03-03T17:02:05;94819.28;;;6.91;100.00
7990;BME280;4040;42.848;23.034;2023-03-03T17:08:11;94821.97;;;6.91;100.00
7990;BME280;4040;42.848;23.034;2023-03-03T17:14:21;94803.19;;;6.77;100.00
7990;BME280;4040;42.848;23.034;2023-03-03T17:20:23;94830.38;;;6.93;100.00
7990;BME280;4040;42.848;23.034;2023-03-03T17:26:42;94801.25;;;6.74;100.00
7990;BME280;4040;42.848;23.034;2023-03-03T17:32:47;94839.16;;;6.90;100.00
7990;BME280;4040;42.848;23.034;2023-03-03T17:38:48;94821.88;;;6.70;100.00
7990;BME280;4040;42.848;23.034;2023-03-03T17:44:49;94846.84;;;6.95;100.00
7990;BME280;4040;42.848;23.034;2023-03-03T17:50:59;94862.09;;;6.84;100.00
7990;BME280;4040;42.848;23.034;2023-03-03T17:56:59;94866.31;;;6.92;100.00
7990;BME280;4040;42.848;23.034;2023-03-03T18:09:20;94858.78;;;6.40;100.00
7990;BME280;4040;42.848;23.034;2023-03-03T18:21:30;94888.22;;;6.40;100.00
7990;BME280;4040;42.848;23.034;2023-03-03T18:27:32;94895.09;;;6.41;100.00
7990;BME280;4040;42.848;23.034;2023-03-03T18:33:40;94896.66;;;6.42;100.00
7990;BME280;4040;42.848;23.034;2023-03-03T18:39:39;94819.47;;;5.87;100.00
7990;BME280;4040;42.848;23.034;2023-03-03T18:45:49;94905.09;;;6.51;100.00
7990;BME280;4040;42.848;23.034;2023-03-03T18:58:28;94922.97;;;6.37;100.00
7990;BME280;4040;42.848;23.034;2023-03-03T19:04:19;94937.13;;;6.41;100.00
7990;BME280;4040;42.848;23.034;2023-03-03T19:10:48;94934.91;;;6.50;100.00
7990;BME280;4040;42.848;23.034;2023-03-03T19:16:39;94920.31;;;6.40;100.00
7990;BME280;4040;42.848;23.034;2023-03-03T19:22:29;94942.47;;;6.37;100.00
7990;BME280;4040;42.848;23.034;2023-03-03T19:28:31;94930.91;;;6.26;100.00
7990;BME280;4040;42.848;23.034;2023-03-03T19:34:31;94907.53;;;6.16;100.00
7990;BME280;4040;42.848;23.034;2023-03-03T19:40:29;94952.53;;;6.54;100.00
7990;BME280;4040;42.848;23.034;2023-03-03T19:46:48;94909.50;;;6.26;100.00
7990;BME280;4040;42.848;23.034;2023-03-03T19:52:46;94947.97;;;6.58;100.00
7990;BME280;4040;42.848;23.034;2023-03-03T19:58:44;94927.72;;;6.61;100.00
7990;BME280;4040;42.848;23.034;2023-03-03T20:04:45;94919.63;;;6.50;100.00
7990;BME280;4040;42.848;23.034;2023-03-03T20:10:47;94937.34;;;6.72;100.00
7990;BME280;4040;42.848;23.034;2023-03-03T20:16:39;94935.06;;;6.78;100.00
7990;BME280;4040;42.848;23.034;2023-03-03T20:22:34;94939.69;;;6.77;100.00
7990;BME280;4040;42.848;23.034;2023-03-03T20:31:54;94933.56;;;6.80;100.00
7990;BME280;4040;42.848;23.034;2023-03-03T20:37:50;94941.16;;;6.71;100.00
7990;BME280;4040;42.848;23.034;2023-03-03T20:43:54;94900.56;;;6.62;100.00
7990;BME280;4040;42.848;23.034;2023-03-03T20:50:01;94927.75;;;6.64;100.00
7990;BME280;4040;42.848;23.034;2023-03-03T20:55:58;94914.66;;;6.49;100.00
7990;BME280;4040;42.848;23.034;2023-03-03T21:01:52;94915.78;;;6.44;100.00
7990;BME280;4040;42.848;23.034;2023-03-03T21:07:55;94921.00;;;6.30;100.00
7990;BME280;4040;42.848;23.034;2023-03-03T21:13:45;94920.22;;;6.26;100.00
7990;BME280;4040;42.848;23.034;2023-03-03T21:19:34;94916.78;;;6.29;100.00
7990;BME280;4040;42.848;23.034;2023-03-03T21:25:45;94916.41;;;6.27;100.00
7990;BME280;4040;42.848;23.034;2023-03-03T21:35:56;94933.25;;;6.31;100.00
7990;BME280;4040;42.848;23.034;2023-03-03T21:41:55;94930.88;;;6.23;100.00
7990;BME280;4040;42.848;23.034;2023-03-03T21:47:44;94950.69;;;6.18;100.00
7990;BME280;4040;42.848;23.034;2023-03-03T21:53:32;94947.69;;;6.23;100.00
7990;BME280;4040;42.848;23.034;2023-03-03T21:59:23;94946.56;;;6.24;100.00
7990;BME280;4040;42.848;23.034;2023-03-03T22:05:12;94899.13;;;5.74;100.00
7990;BME280;4040;42.848;23.034;2023-03-03T22:11:01;94941.03;;;6.03;100.00
7990;BME280;4040;42.848;23.034;2023-03-03T22:16:51;94941.31;;;5.91;100.00
7990;BME280;4040;42.848;23.034;2023-03-03T22:22:40;94934.47;;;5.97;100.00
7990;BME280;4040;42.848;23.034;2023-03-03T22:28:29;94915.66;;;5.83;100.00
7990;BME280;4040;42.848;23.034;2023-03-03T22:38:41;94936.13;;;6.09;100.00
7990;BME280;4040;42.848;23.034;2023-03-03T22:44:30;94940.59;;;5.98;100.00
7990;BME280;4040;42.848;23.034;2023-03-03T22:50:19;94933.63;;;5.86;100.00
7990;BME280;4040;42.848;23.034;2023-03-03T22:56:09;94956.59;;;5.94;100.00
7990;BME280;4040;42.848;23.034;2023-03-03T23:08:32;94948.03;;;5.45;100.00
7990;BME280;4040;42.848;23.034;2023-03-03T23:14:21;94942.22;;;5.69;100.00
7990;BME280;4040;42.848;23.034;2023-03-03T23:20:12;94940.44;;;5.80;100.00
7990;BME280;4040;42.848;23.034;2023-03-03T23:26:02;94937.94;;;5.61;100.00
7990;BME280;4040;42.848;23.034;2023-03-03T23:31:51;94955.88;;;5.97;100.00
7990;BME280;4040;42.848;23.034;2023-03-03T23:37:40;94951.97;;;5.88;100.00
7990;BME280;4040;42.848;23.034;2023-03-03T23:43:30;94952.06;;;5.98;100.00
7990;BME280;4040;42.848;23.034;2023-03-03T23:49:19;94957.34;;;5.91;100.00
7990;BME280;4040;42.848;23.034;2023-03-03T23:55:08;94973.19;;;6.10;100.00
